»·PEaware :: RNGR812 KNGP-KNGP

RNGR812 :: KNGP-KNGP

FLIGHT INFORMATION

Flight Status: Arrived
Operator: Unknown
More flights by this operator :: More flights under this callsign
Pilot: USN Avenger (31125)
Aircraft: BEECH AIRCRAFT T-6A TEXAN
(TEX2)
More flights by this aircraft type
Origin: KNGP Corpus Christi NAS/Truax
United States
Destination: KNGP Corpus Christi NAS/Truax
United States
More flights between these airports :: More routes between these airports
Route: , MUSTANG, KRKP
File this flight plan on PilotEdge
Remarks:
Altitude:
(Current/Filed)
14,500ft
Speed:
(Current/Filed)
240kts
Departed: 27-Nov-23 10:31 AM
Arrived: 27-Nov-23 11:37 AM
Distance/Time
Traveled:
0nm/1:06
Distance/Time
To Go:
Arrived

Flight Plot

Page will automatically refresh every two minutes.

Flight plan parsing failed; only flown route is shown


Map Options




Map Legend


Flown Route
Filed Route
Departure Airport
Arrival Airport
Navaid (VOR, NDB)
Fix

Horizontal Profiles

Position Reports

Time Latitude Longitude Heading Altitude Ground
Speed
27-Nov-23 10:12 27.698782 -97.288139 179 22ft 0kts
27-Nov-23 10:13 27.698782 -97.288139 179 22ft 0kts
27-Nov-23 10:14 27.698782 -97.288139 179 22ft 0kts
27-Nov-23 10:15 27.698782 -97.288139 179 22ft 0kts
27-Nov-23 10:16 27.698782 -97.288139 179 22ft 0kts
27-Nov-23 10:17 27.698782 -97.288139 179 22ft 0kts
27-Nov-23 10:18 27.698782 -97.288139 179 22ft 0kts
27-Nov-23 10:19 27.698782 -97.288139 179 22ft 0kts
27-Nov-23 10:20 27.698782 -97.288139 179 22ft 0kts
27-Nov-23 10:21 27.698782 -97.288139 179 22ft 0kts
27-Nov-23 10:22 27.698782 -97.288139 179 22ft 0kts
27-Nov-23 10:23 27.698782 -97.288139 179 22ft 0kts
27-Nov-23 10:24 27.698782 -97.288139 179 22ft 0kts
27-Nov-23 10:25 27.698782 -97.288139 179 22ft 0kts
27-Nov-23 10:26 27.698782 -97.288139 179 22ft 0kts
27-Nov-23 10:27 27.698781 -97.288139 179 22ft 0kts
27-Nov-23 10:28 27.698780 -97.288139 179 22ft 0kts
27-Nov-23 10:29 27.698746 -97.288139 179 22ft 5kts
27-Nov-23 10:30 27.674887 -97.279223 110 556ft 163kts
27-Nov-23 10:31 27.659052 -97.220662 102 945ft 207kts
27-Nov-23 10:32 27.658772 -97.161069 46 2928ft 218kts
27-Nov-23 10:33 27.700477 -97.119775 39 5627ft 196kts
27-Nov-23 10:34 27.758547 -97.084599 20 5443ft 259kts
27-Nov-23 10:35 27.824554 -97.058882 21 5412ft 251kts
27-Nov-23 10:36 27.886001 -97.024256 29 5545ft 255kts
27-Nov-23 10:37 27.946064 -96.982783 31 5520ft 256kts
27-Nov-23 10:38 28.007984 -96.944568 44 5507ft 251kts
27-Nov-23 10:39 28.026029 -96.875810 85 6781ft 225kts
27-Nov-23 10:40 28.056000 -96.838977 324 7038ft 245kts
27-Nov-23 10:41 28.066588 -96.850451 312 6937ft 240kts
27-Nov-23 10:42 28.100652 -96.912494 293 4682ft 214kts
27-Nov-23 10:43 28.111718 -96.939157 296 3658ft 205kts
27-Nov-23 10:44 28.135364 -96.980418 298 3366ft 191kts
27-Nov-23 10:45 28.131653 -97.015807 234 1170ft 172kts
27-Nov-23 10:46 28.085188 -97.041860 190 1125ft 198kts
27-Nov-23 10:47 28.071368 -97.051350 294 1277ft 162kts
27-Nov-23 10:48 28.080732 -97.054641 20 910ft 133kts
27-Nov-23 10:49 28.097333 -97.037753 185 400ft 130kts
27-Nov-23 10:50 28.076904 -97.049780 11 698ft 118kts
27-Nov-23 10:51 28.101203 -97.036116 181 564ft 109kts
27-Nov-23 10:52 28.072163 -97.046659 262 611ft 124kts
27-Nov-23 10:53 28.084298 -97.055790 7 909ft 119kts
27-Nov-23 10:54 28.104371 -97.043434 118 455ft 113kts
27-Nov-23 10:55 28.075178 -97.042049 200 325ft 128kts
27-Nov-23 10:56 28.095983 -97.050647 11 741ft 119kts
27-Nov-23 10:57 28.085544 -97.040125 190 29ft 105kts
27-Nov-23 10:59 28.085850 -97.052048 12 813ft 121kts
27-Nov-23 11:00 28.089049 -97.039444 191 28ft 97kts
27-Nov-23 11:01 28.077742 -97.055202 9 825ft 127kts
27-Nov-23 11:02 28.102420 -97.038484 137 341ft 121kts
27-Nov-23 11:03 28.072499 -97.044289 234 497ft 122kts
27-Nov-23 11:04 28.098981 -97.049177 18 855ft 113kts
27-Nov-23 11:05 28.085030 -97.040101 192 108ft 122kts
27-Nov-23 11:06 28.085826 -97.055826 10 835ft 136kts
27-Nov-23 11:07 28.096298 -97.038461 180 162ft 106kts
27-Nov-23 11:08 28.088794 -97.039500 189 28ft 86kts
27-Nov-23 11:09 28.088794 -97.039500 189 28ft 86kts
27-Nov-23 11:10 28.088794 -97.039500 189 28ft 86kts
27-Nov-23 11:11 28.088794 -97.039500 189 28ft 86kts
27-Nov-23 11:12 28.088794 -97.039500 189 28ft 86kts
27-Nov-23 11:13 28.088794 -97.039500 189 28ft 86kts
27-Nov-23 11:14 28.088794 -97.039500 189 28ft 86kts
27-Nov-23 11:15 28.088794 -97.039500 189 28ft 86kts
27-Nov-23 11:16 28.087794 -97.039705 190 28ft 82kts
27-Nov-23 11:17 28.068865 -97.057769 322 850ft 123kts
27-Nov-23 11:18 28.101061 -97.051818 41 793ft 110kts
27-Nov-23 11:19 28.082291 -97.040727 189 93ft 126kts
27-Nov-23 11:20 28.087385 -97.054164 15 894ft 124kts
27-Nov-23 11:21 28.092088 -97.038785 190 33ft 96kts
27-Nov-23 11:22 28.076802 -97.054529 358 813ft 137kts
27-Nov-23 11:23 28.121355 -97.055840 14 583ft 201kts
27-Nov-23 11:23 28.119243 -97.012793 119 1641ft 201kts
27-Nov-23 11:25 28.054778 -97.009325 191 1997ft 221kts
27-Nov-23 11:26 28.000787 -97.037137 219 1485ft 202kts
27-Nov-23 11:26 27.965593 -97.071759 221 1273ft 205kts
27-Nov-23 11:28 27.911363 -97.102736 199 1106ft 190kts
27-Nov-23 11:29 27.853992 -97.125390 198 1063ft 243kts
27-Nov-23 11:29 27.801473 -97.147164 202 1018ft 239kts
27-Nov-23 11:30 27.748518 -97.186272 255 1121ft 229kts
27-Nov-23 11:31 27.731172 -97.246427 257 1062ft 198kts
27-Nov-23 11:33 27.700128 -97.298717 128 703ft 212kts
27-Nov-23 11:33 27.671365 -97.260120 92 1247ft 158kts
27-Nov-23 11:34 27.697103 -97.272452 317 799ft 116kts
27-Nov-23 11:35 27.701318 -97.296564 166 227ft 106kts
27-Nov-23 11:36 27.689606 -97.284737 97 22ft 11kts

Navigation Log

Ident Type
Flight plan parsing failed, navigation log unavailable